createdAt,value
2018-06-24T00:02:50.949Z,12.00
2018-06-24T00:05:19.517Z,12.00
2018-06-24T00:07:48.004Z,11.90
2018-06-24T00:10:16.492Z,11.90
2018-06-24T00:15:13.197Z,11.90
2018-06-24T00:17:41.680Z,11.90
2018-06-24T00:20:10.367Z,11.90
2018-06-24T00:22:38.845Z,11.90
2018-06-24T00:25:07.432Z,11.90
2018-06-24T00:27:35.927Z,11.90
2018-06-24T00:30:05.287Z,11.90
2018-06-24T00:32:33.773Z,11.90
2018-06-24T00:35:02.229Z,11.90
2018-06-24T00:37:30.762Z,11.90
2018-06-24T00:39:59.252Z,11.80
2018-06-24T00:42:27.720Z,11.80
2018-06-24T00:44:56.237Z,11.70
2018-06-24T00:47:24.701Z,11.70
2018-06-24T00:49:53.233Z,11.70
2018-06-24T00:52:21.689Z,11.70
2018-06-24T00:54:50.165Z,11.80
2018-06-24T00:57:18.684Z,11.80
2018-06-24T00:59:58.452Z,11.90
2018-06-24T01:02:26.925Z,11.90
2018-06-24T01:04:55.637Z,12.00
2018-06-24T01:07:24.188Z,12.00
2018-06-24T01:09:52.677Z,12.00
2018-06-24T01:12:21.187Z,11.90
2018-06-24T01:14:49.680Z,11.80
2018-06-24T01:17:18.162Z,11.80
2018-06-24T01:19:46.604Z,11.70
2018-06-24T01:22:15.117Z,11.70
2018-06-24T01:24:43.607Z,11.60
2018-06-24T01:27:12.070Z,11.60
2018-06-24T01:29:40.545Z,11.50
2018-06-24T01:32:09.107Z,11.40
2018-06-24T01:34:37.603Z,11.40
2018-06-24T01:37:06.081Z,11.40
2018-06-24T01:39:34.585Z,11.30
2018-06-24T01:42:03.065Z,11.30
2018-06-24T01:44:31.550Z,11.30
2018-06-24T01:47:00.013Z,11.30
2018-06-24T01:49:28.518Z,11.30
2018-06-24T01:51:56.988Z,11.40
2018-06-24T01:54:25.552Z,11.40
2018-06-24T01:56:54.013Z,11.40
2018-06-24T02:01:50.836Z,11.40
2018-06-24T02:04:19.325Z,11.40
2018-06-24T02:06:47.865Z,11.40
2018-06-24T02:09:16.352Z,11.40
2018-06-24T02:11:44.803Z,11.40
2018-06-24T02:14:13.250Z,11.40
2018-06-24T02:16:41.725Z,11.40
2018-06-24T02:19:10.843Z,11.40
2018-06-24T02:21:39.987Z,11.40
2018-06-24T02:24:08.683Z,11.40
2018-06-24T02:26:37.320Z,11.40
2018-06-24T02:29:05.872Z,11.40
2018-06-24T02:31:34.585Z,11.50
2018-06-24T02:34:03.081Z,11.50
2018-06-24T02:38:59.789Z,11.60
2018-06-24T02:41:28.271Z,11.60
2018-06-24T02:43:56.756Z,11.60
2018-06-24T02:46:25.231Z,11.60
2018-06-24T02:48:53.709Z,11.70
2018-06-24T02:51:22.165Z,11.70
2018-06-24T02:53:50.679Z,11.70
2018-06-24T02:56:19.162Z,11.70
2018-06-24T02:58:47.698Z,11.70
2018-06-24T03:01:16.169Z,11.70
2018-06-24T03:03:44.964Z,11.70
2018-06-24T03:06:13.469Z,11.80
2018-06-24T03:08:41.950Z,11.70
2018-06-24T03:11:10.472Z,11.80
2018-06-24T03:13:39.011Z,11.70
2018-06-24T03:18:35.677Z,11.80
2018-06-24T03:21:04.132Z,11.80
2018-06-24T03:23:32.620Z,11.90
2018-06-24T03:26:01.104Z,11.90
2018-06-24T03:28:29.641Z,11.90
2018-06-24T03:30:58.103Z,11.90
2018-06-24T03:33:26.545Z,11.90
2018-06-24T03:35:55.033Z,11.90
2018-06-24T03:40:51.704Z,12.00
2018-06-24T03:43:20.144Z,12.00
2018-06-24T03:45:48.615Z,12.00
2018-06-24T03:48:17.105Z,12.00
2018-06-24T03:50:45.561Z,12.00
2018-06-24T03:53:14.041Z,12.00
2018-06-24T03:55:42.536Z,12.10
2018-06-24T03:58:11.000Z,12.10
2018-06-24T04:00:40.191Z,12.10
2018-06-24T04:03:08.778Z,12.10
2018-06-24T04:05:37.237Z,12.20
2018-06-24T04:08:06.108Z,12.20
2018-06-24T04:10:34.616Z,12.20
2018-06-24T04:13:03.140Z,12.20
2018-06-24T04:15:31.585Z,12.20
2018-06-24T04:18:00.058Z,12.30
2018-06-24T04:20:28.563Z,12.30
2018-06-24T04:22:57.018Z,12.40
2018-06-24T04:27:53.736Z,12.50
2018-06-24T04:30:22.224Z,12.50
2018-06-24T04:32:50.692Z,12.50
2018-06-24T04:35:19.176Z,12.50
2018-06-24T04:37:47.663Z,12.60
2018-06-24T04:40:16.168Z,12.60
2018-06-24T04:42:44.639Z,12.60
2018-06-24T04:45:13.128Z,12.60
2018-06-24T04:47:41.616Z,12.60
2018-06-24T04:50:10.149Z,12.70
2018-06-24T04:52:38.873Z,12.70
2018-06-24T04:55:07.329Z,12.70
2018-06-24T04:57:35.808Z,12.70
2018-06-24T05:00:04.365Z,12.80
2018-06-24T05:02:32.814Z,12.80
2018-06-24T05:05:01.312Z,12.80
2018-06-24T05:07:29.765Z,12.90
2018-06-24T05:09:58.337Z,12.90
2018-06-24T05:12:27.664Z,13.00
2018-06-24T05:14:56.164Z,13.00
2018-06-24T05:17:24.660Z,13.10
2018-06-24T05:19:53.224Z,13.10
2018-06-24T05:22:21.849Z,13.10
2018-06-24T05:24:50.373Z,13.20
2018-06-24T05:27:18.811Z,13.20
2018-06-24T05:29:47.248Z,13.30
2018-06-24T05:34:43.932Z,13.40
2018-06-24T05:37:12.409Z,13.40
2018-06-24T05:39:41.068Z,13.50
2018-06-24T05:44:38.000Z,13.50
2018-06-24T05:47:06.500Z,13.50
2018-06-24T05:49:34.992Z,13.50
2018-06-24T05:52:03.520Z,13.50
2018-06-24T05:54:31.961Z,13.50
2018-06-24T05:59:28.604Z,13.60
2018-06-24T06:01:57.176Z,13.60
2018-06-24T06:04:25.633Z,13.60
2018-06-24T06:06:54.192Z,13.60
2018-06-24T06:09:22.633Z,13.50
2018-06-24T06:11:51.171Z,13.50
2018-06-24T06:14:19.667Z,13.50
2018-06-24T06:16:48.145Z,13.50
2018-06-24T06:19:16.653Z,13.40
2018-06-24T06:21:45.140Z,13.40
2018-06-24T06:24:13.601Z,13.40
2018-06-24T06:29:10.265Z,13.20
2018-06-24T06:31:38.910Z,13.20
2018-06-24T06:34:07.677Z,13.00
2018-06-24T06:36:36.164Z,12.90
2018-06-24T06:39:07.380Z,13.00
2018-06-24T06:41:35.864Z,13.00
2018-06-24T06:44:04.402Z,12.90
2018-06-24T06:46:32.894Z,12.80
2018-06-24T06:49:01.362Z,12.80
2018-06-24T06:51:29.832Z,12.90
2018-06-24T06:53:58.284Z,12.80
2018-06-24T06:56:26.800Z,12.80
2018-06-24T06:58:55.245Z,12.80
2018-06-24T07:01:23.693Z,12.70
2018-06-24T07:03:52.183Z,12.70
2018-06-24T07:06:20.667Z,12.60
2018-06-24T07:08:49.172Z,12.50
2018-06-24T07:11:17.703Z,12.50
2018-06-24T07:13:46.261Z,12.50
2018-06-24T07:18:42.949Z,12.50
2018-06-24T07:21:11.465Z,12.50
2018-06-24T07:23:39.976Z,12.50
2018-06-24T07:26:08.480Z,12.40
2018-06-24T07:28:36.994Z,12.50
2018-06-24T07:31:05.491Z,12.60
2018-06-24T07:33:34.074Z,12.70
2018-06-24T07:36:02.597Z,12.70
2018-06-24T07:40:59.321Z,12.60
2018-06-24T07:43:27.849Z,12.60
2018-06-24T07:45:56.376Z,12.60
2018-06-24T07:48:24.842Z,12.70
2018-06-24T07:50:53.366Z,12.70
2018-06-24T07:53:21.852Z,12.80
2018-06-24T07:55:50.379Z,12.80
2018-06-24T07:58:18.969Z,12.80
2018-06-24T08:00:47.512Z,12.80
2018-06-24T08:03:16.004Z,12.90
2018-06-24T08:08:12.738Z,13.00
2018-06-24T08:10:41.223Z,12.90
2018-06-24T08:13:09.759Z,12.80
2018-06-24T08:15:38.217Z,12.70
2018-06-24T08:18:06.753Z,12.70
2018-06-24T08:20:35.299Z,12.70
2018-06-24T08:23:03.816Z,12.70
2018-06-24T08:25:32.278Z,12.70
2018-06-24T08:28:00.761Z,12.80
2018-06-24T08:30:29.249Z,12.80
2018-06-24T08:32:57.783Z,12.80
2018-06-24T08:37:54.621Z,12.80
2018-06-24T08:40:23.104Z,12.80
2018-06-24T08:42:51.605Z,12.80
2018-06-24T08:47:48.348Z,12.80
2018-06-24T08:50:16.833Z,12.90
2018-06-24T08:52:45.329Z,12.90
2018-06-24T08:55:13.844Z,12.90
2018-06-24T08:57:42.315Z,12.90
2018-06-24T09:00:10.834Z,13.00
2018-06-24T09:02:39.286Z,13.00
2018-06-24T09:05:07.842Z,13.00
2018-06-24T09:07:36.308Z,13.00
2018-06-24T09:10:04.876Z,13.00
2018-06-24T09:12:33.432Z,13.00
2018-06-24T09:15:01.967Z,13.10
2018-06-24T09:17:30.557Z,13.10
2018-06-24T09:19:59.025Z,13.20
2018-06-24T09:22:27.533Z,13.10
2018-06-24T09:24:56.211Z,13.00
2018-06-24T09:29:52.882Z,12.80
2018-06-24T09:32:21.444Z,12.80
2018-06-24T09:34:50.028Z,12.90
2018-06-24T09:42:16.723Z,13.30
2018-06-24T09:44:46.671Z,13.50
2018-06-24T09:49:45.868Z,13.80
2018-06-24T09:52:19.959Z,13.70
2018-06-24T09:54:51.090Z,13.70
2018-06-24T09:57:21.288Z,13.70
2018-06-24T09:59:51.407Z,13.70
2018-06-24T10:02:22.503Z,13.80
2018-06-24T10:04:53.133Z,13.90
2018-06-24T10:07:21.665Z,14.00
2018-06-24T10:09:50.193Z,14.10
2018-06-24T10:12:18.815Z,13.90
2018-06-24T10:14:47.298Z,13.70
2018-06-24T10:17:16.125Z,13.40
2018-06-24T10:19:44.565Z,13.30
2018-06-24T10:22:13.229Z,13.20
2018-06-24T10:24:41.953Z,13.20
2018-06-24T10:27:10.444Z,13.30
2018-06-24T10:29:38.929Z,13.40
2018-06-24T10:32:07.734Z,13.50
2018-06-24T10:34:36.220Z,13.50
2018-06-24T10:37:04.701Z,13.40
2018-06-24T10:39:36.225Z,13.40
2018-06-24T10:42:04.806Z,13.50
2018-06-24T10:44:33.863Z,13.50
2018-06-24T10:47:02.885Z,13.60
2018-06-24T10:49:31.503Z,13.60
2018-06-24T10:51:59.999Z,13.60
2018-06-24T10:54:28.683Z,13.60
2018-06-24T10:56:57.185Z,13.70
2018-06-24T10:59:25.660Z,13.70
2018-06-24T11:04:22.367Z,13.70
2018-06-24T11:06:50.848Z,13.80
2018-06-24T11:09:19.299Z,13.90
2018-06-24T11:11:47.912Z,13.90
2018-06-24T11:14:16.539Z,13.80
2018-06-24T11:16:45.046Z,13.70
2018-06-24T11:19:13.569Z,13.80
2018-06-24T11:21:42.118Z,13.70
2018-06-24T11:24:10.636Z,13.70
2018-06-24T11:26:39.192Z,13.70
2018-06-24T11:29:07.699Z,13.70
2018-06-24T11:31:36.156Z,13.80
2018-06-24T11:34:04.856Z,13.80
2018-06-24T11:36:33.351Z,13.90
2018-06-24T11:39:01.846Z,14.00
2018-06-24T11:41:30.313Z,14.00
2018-06-24T11:43:58.840Z,14.10
2018-06-24T11:46:27.346Z,14.20
2018-06-24T11:48:55.857Z,14.30
2018-06-24T11:51:24.334Z,14.30
2018-06-24T11:53:52.820Z,14.30
2018-06-24T11:56:21.496Z,14.30
2018-06-24T11:58:49.959Z,14.40
2018-06-24T12:01:18.821Z,14.40
2018-06-24T12:03:47.288Z,14.40
2018-06-24T12:06:15.794Z,14.40
2018-06-24T12:08:44.633Z,14.40
2018-06-24T12:11:13.461Z,14.40
2018-06-24T12:13:42.153Z,14.40
2018-06-24T12:16:10.609Z,14.40
2018-06-24T12:18:39.125Z,14.40
2018-06-24T12:21:07.584Z,14.30
2018-06-24T12:23:36.084Z,14.20
2018-06-24T12:28:34.137Z,14.20
2018-06-24T12:31:04.970Z,14.20
2018-06-24T12:33:34.898Z,14.20
2018-06-24T12:36:03.892Z,14.30
2018-06-24T12:38:32.361Z,14.40
2018-06-24T12:41:00.998Z,14.50
2018-06-24T12:43:30.958Z,14.50
2018-06-24T12:46:01.192Z,14.40
2018-06-24T12:48:29.686Z,14.30
2018-06-24T12:50:58.133Z,14.20
2018-06-24T12:53:26.628Z,14.10
2018-06-24T12:55:55.087Z,14.10
2018-06-24T12:58:23.679Z,14.20
2018-06-24T13:00:52.680Z,14.40
2018-06-24T13:03:20.528Z,14.40
2018-06-24T13:05:49.373Z,14.50
2018-06-24T13:08:18.029Z,14.50
2018-06-24T13:10:48.824Z,14.50
2018-06-24T13:13:17.365Z,14.50
2018-06-24T13:15:45.903Z,14.50
2018-06-24T13:18:14.342Z,14.50
2018-06-24T13:20:42.885Z,14.50
2018-06-24T13:23:11.394Z,14.60
2018-06-24T13:25:39.854Z,14.70
2018-06-24T13:28:08.352Z,14.80
2018-06-24T13:30:36.868Z,14.80
2018-06-24T13:33:05.564Z,14.80
2018-06-24T13:35:34.065Z,14.80
2018-06-24T13:38:02.617Z,14.90
2018-06-24T13:40:31.123Z,14.80
2018-06-24T13:42:59.584Z,14.70
2018-06-24T13:47:56.522Z,14.70
2018-06-24T13:50:24.972Z,14.70
2018-06-24T13:52:53.472Z,14.60
2018-06-24T13:55:23.115Z,14.60
2018-06-24T13:57:51.664Z,14.70
2018-06-24T14:00:20.151Z,14.80
2018-06-24T14:02:48.642Z,14.80
2018-06-24T14:05:17.132Z,14.90
2018-06-24T14:07:45.623Z,15.10
2018-06-24T14:10:14.149Z,15.20
2018-06-24T14:12:42.653Z,15.40
2018-06-24T14:15:11.397Z,15.50
2018-06-24T14:17:40.018Z,15.50
2018-06-24T14:20:08.553Z,15.60
2018-06-24T14:22:37.046Z,15.70
2018-06-24T14:27:33.712Z,15.90
2018-06-24T14:30:02.202Z,15.90
2018-06-24T14:32:30.705Z,16.00
2018-06-24T14:34:59.212Z,15.80
2018-06-24T14:37:27.696Z,15.80
2018-06-24T14:39:56.564Z,15.60
2018-06-24T14:42:25.076Z,15.40
2018-06-24T14:44:53.531Z,15.30
2018-06-24T14:47:22.038Z,15.40
2018-06-24T14:49:50.540Z,15.60
2018-06-24T14:52:19.185Z,15.80
2018-06-24T14:54:47.687Z,16.00
2018-06-24T14:57:16.177Z,16.00
2018-06-24T14:59:44.744Z,16.10
2018-06-24T15:02:13.358Z,16.30
2018-06-24T15:04:41.828Z,16.50
2018-06-24T15:07:10.388Z,16.60
2018-06-24T15:09:38.852Z,16.50
2018-06-24T15:12:07.693Z,16.40
2018-06-24T15:14:36.220Z,16.10
2018-06-24T15:17:04.738Z,15.70
2018-06-24T15:19:33.191Z,15.30
2018-06-24T15:22:01.856Z,15.00
2018-06-24T15:24:30.350Z,14.80
2018-06-24T15:26:58.792Z,14.80
2018-06-24T15:29:28.008Z,15.00
2018-06-24T15:31:56.575Z,15.40
2018-06-24T15:34:25.138Z,15.70
2018-06-24T15:36:53.681Z,16.00
2018-06-24T15:39:22.243Z,16.60
2018-06-24T15:41:50.750Z,17.30
2018-06-24T15:44:19.302Z,17.70
2018-06-24T15:46:47.893Z,17.60
2018-06-24T15:49:16.393Z,17.40
2018-06-24T15:51:44.877Z,16.90
2018-06-24T15:54:13.436Z,16.50
2018-06-24T15:56:43.546Z,16.20
2018-06-24T15:59:12.373Z,15.90
2018-06-24T16:01:44.609Z,15.70
2018-06-24T16:04:27.785Z,15.60
2018-06-24T16:07:00.760Z,15.60
2018-06-24T16:09:30.138Z,15.60
2018-06-24T16:11:58.688Z,15.60
2018-06-24T16:14:27.219Z,15.60
2018-06-24T16:17:00.434Z,15.50
2018-06-24T16:19:38.931Z,15.40
2018-06-24T16:22:12.601Z,15.40
2018-06-24T16:24:54.255Z,15.30
2018-06-24T16:27:33.566Z,15.30
2018-06-24T16:30:06.603Z,15.40
2018-06-24T16:32:46.659Z,15.50
2018-06-24T16:35:21.756Z,15.50
2018-06-24T16:37:52.274Z,15.50
2018-06-24T16:40:25.176Z,15.40
2018-06-24T16:42:58.475Z,15.40
2018-06-24T16:45:31.635Z,15.40
2018-06-24T16:50:42.745Z,15.40
2018-06-24T16:53:16.537Z,15.30
2018-06-24T16:55:47.490Z,15.30
2018-06-24T16:58:27.960Z,15.20
2018-06-24T17:01:02.837Z,15.30
2018-06-24T17:03:31.548Z,15.40
2018-06-24T17:08:28.486Z,15.60
2018-06-24T17:10:57.155Z,15.60
2018-06-24T17:13:25.651Z,15.60
2018-06-24T17:15:54.246Z,15.60
2018-06-24T17:18:22.824Z,15.50
2018-06-24T17:20:51.427Z,15.40
2018-06-24T17:25:48.227Z,15.00
2018-06-24T17:28:16.781Z,14.80
2018-06-24T17:30:45.318Z,14.70
2018-06-24T17:33:13.894Z,14.70
2018-06-24T17:35:43.451Z,14.70
2018-06-24T17:38:12.150Z,14.70
2018-06-24T17:40:40.701Z,14.60
2018-06-24T17:43:09.332Z,14.40
2018-06-24T17:45:37.885Z,14.40
2018-06-24T17:48:06.784Z,14.40
2018-06-24T17:50:44.682Z,14.40
2018-06-24T17:53:15.503Z,14.40
2018-06-24T17:55:46.604Z,14.40
2018-06-24T17:58:16.462Z,14.40
2018-06-24T18:03:18.321Z,14.40
2018-06-24T18:05:47.920Z,14.30
2018-06-24T18:08:16.515Z,14.30
2018-06-24T18:10:47.029Z,14.20
2018-06-24T18:13:18.054Z,14.20
2018-06-24T18:15:46.749Z,14.20
2018-06-24T18:18:15.313Z,14.10
2018-06-24T18:20:43.903Z,14.00
2018-06-24T18:23:12.465Z,14.00
2018-06-24T18:28:13.985Z,13.90
2018-06-24T18:30:42.593Z,13.80
2018-06-24T18:33:11.143Z,13.80
2018-06-24T18:35:39.747Z,13.80
2018-06-24T18:38:08.310Z,13.80
2018-06-24T18:40:36.821Z,13.80
2018-06-24T18:43:05.833Z,13.80
2018-06-24T18:45:34.426Z,13.80
2018-06-24T18:50:31.479Z,13.80
2018-06-24T18:53:00.071Z,13.80
2018-06-24T18:55:28.602Z,13.80
2018-06-24T18:57:57.095Z,13.80
2018-06-24T19:00:25.649Z,13.80
2018-06-24T19:02:54.210Z,13.80
2018-06-24T19:05:22.735Z,13.70
2018-06-24T19:07:51.243Z,13.70
2018-06-24T19:10:19.804Z,13.70
2018-06-24T19:12:48.425Z,13.70
2018-06-24T19:15:16.913Z,13.70
2018-06-24T19:17:45.524Z,13.70
2018-06-24T19:22:42.326Z,13.70
2018-06-24T19:25:10.883Z,13.70
2018-06-24T19:27:39.436Z,13.70
2018-06-24T19:30:08.052Z,13.70
2018-06-24T19:32:36.703Z,13.60
2018-06-24T19:35:05.340Z,13.60
2018-06-24T19:37:33.894Z,13.60
2018-06-24T19:40:02.449Z,13.50
2018-06-24T19:42:31.043Z,13.50
2018-06-24T19:44:59.577Z,13.50
2018-06-24T19:47:28.143Z,13.50
2018-06-24T19:49:56.677Z,13.50
2018-06-24T19:52:25.350Z,13.50
2018-06-24T19:54:53.866Z,13.50
2018-06-24T19:57:22.425Z,13.60
2018-06-24T19:59:50.962Z,13.50
2018-06-24T20:02:19.588Z,13.50
2018-06-24T20:04:48.147Z,13.50
2018-06-24T20:07:16.711Z,13.50
2018-06-24T20:09:45.265Z,13.60
2018-06-24T20:12:13.818Z,13.50
2018-06-24T20:14:42.401Z,13.50
2018-06-24T20:17:11.017Z,13.40
2018-06-24T20:19:39.531Z,13.30
2018-06-24T20:22:08.086Z,13.20
2018-06-24T20:24:37.646Z,13.10
2018-06-24T20:27:06.269Z,13.10
2018-06-24T20:29:34.842Z,13.00
2018-06-24T20:32:03.532Z,13.00
2018-06-24T20:34:32.104Z,13.00
2018-06-24T20:37:00.621Z,13.00
2018-06-24T20:39:29.189Z,13.00
2018-06-24T20:41:57.736Z,13.10
2018-06-24T20:44:26.323Z,13.10
2018-06-24T20:46:54.867Z,13.00
2018-06-24T20:49:23.415Z,13.10
2018-06-24T20:51:51.993Z,13.10
2018-06-24T20:54:20.538Z,13.10
2018-06-24T20:56:49.129Z,13.10
2018-06-24T20:59:17.671Z,13.10
2018-06-24T21:04:14.440Z,13.10
2018-06-24T21:06:43.022Z,13.20
2018-06-24T21:09:12.216Z,13.20
2018-06-24T21:11:41.070Z,13.20
2018-06-24T21:14:09.800Z,13.20
2018-06-24T21:16:38.381Z,13.30
2018-06-24T21:19:06.905Z,13.30
2018-06-24T21:21:35.507Z,13.30
2018-06-24T21:24:04.029Z,13.30
2018-06-24T21:26:32.574Z,13.30
2018-06-24T21:29:01.145Z,13.40
2018-06-24T21:31:29.753Z,13.40
2018-06-24T21:33:58.322Z,13.50
2018-06-24T21:36:26.882Z,13.50
2018-06-24T21:38:55.502Z,13.50
2018-06-24T21:41:24.106Z,13.50
2018-06-24T21:43:52.634Z,13.50
2018-06-24T21:46:21.232Z,13.60
2018-06-24T21:48:49.800Z,13.60
2018-06-24T21:51:18.332Z,13.60
2018-06-24T21:53:46.921Z,13.60
2018-06-24T21:56:15.485Z,13.60
2018-06-24T21:58:44.060Z,13.60
2018-06-24T22:01:12.738Z,13.70
2018-06-24T22:03:41.282Z,13.70
2018-06-24T22:06:09.862Z,13.70
2018-06-24T22:08:38.460Z,13.70
2018-06-24T22:11:07.030Z,13.70
2018-06-24T22:13:35.635Z,13.70
2018-06-24T22:16:04.859Z,13.70
2018-06-24T22:18:34.688Z,13.70
2018-06-24T22:21:03.262Z,13.70
2018-06-24T22:23:33.994Z,13.80
2018-06-24T22:26:04.257Z,13.70
2018-06-24T22:28:32.849Z,13.80
2018-06-24T22:33:29.689Z,13.90
2018-06-24T22:35:58.286Z,13.80
2018-06-24T22:38:26.933Z,13.90
2018-06-24T22:40:55.741Z,13.90
2018-06-24T22:43:24.372Z,13.90
2018-06-24T22:45:54.042Z,13.90
2018-06-24T22:48:22.647Z,14.00
2018-06-24T22:50:51.198Z,14.00
2018-06-24T22:53:19.966Z,14.00
2018-06-24T22:55:48.680Z,14.00
2018-06-24T22:58:17.246Z,13.90
2018-06-24T23:00:45.864Z,13.90
2018-06-24T23:03:14.425Z,13.90
2018-06-24T23:05:42.998Z,13.90
2018-06-24T23:08:11.585Z,13.90
2018-06-24T23:10:40.162Z,13.90
2018-06-24T23:13:08.938Z,13.90
2018-06-24T23:15:37.453Z,14.00
2018-06-24T23:18:06.023Z,14.00
2018-06-24T23:20:34.621Z,14.00
2018-06-24T23:23:03.190Z,14.00
2018-06-24T23:25:31.825Z,14.00
2018-06-24T23:28:00.354Z,14.00
2018-06-24T23:30:28.879Z,14.00
2018-06-24T23:32:57.461Z,14.00
2018-06-24T23:35:26.010Z,14.00
2018-06-24T23:37:54.559Z,14.00
2018-06-24T23:40:23.104Z,14.00
2018-06-24T23:42:51.659Z,14.00
2018-06-24T23:45:20.188Z,14.00
2018-06-24T23:47:48.720Z,14.00
2018-06-24T23:50:23.654Z,14.10
2018-06-24T23:52:52.159Z,14.10
2018-06-24T23:55:20.746Z,14.10
2018-06-24T23:57:49.339Z,14.10
